createdAt,value
2023-03-12T00:01:53.071Z,-1.90
2023-03-12T00:04:24.920Z,-1.80
2023-03-12T00:06:54.552Z,-2.40
2023-03-12T00:09:24.472Z,-2.80
2023-03-12T00:11:51.276Z,-2.80
2023-03-12T00:14:18.121Z,-2.90
2023-03-12T00:16:45.028Z,-3.30
2023-03-12T00:19:12.838Z,-2.10
2023-03-12T00:21:39.950Z,-2.90
2023-03-12T00:24:07.853Z,-3.30
2023-03-12T00:26:34.567Z,-3.00
2023-03-12T00:29:01.243Z,-2.80
2023-03-12T00:31:30.110Z,-3.10
2023-03-12T00:36:26.805Z,-3.00
2023-03-12T00:38:53.910Z,-3.10
2023-03-12T00:41:20.857Z,-3.00
2023-03-12T00:43:47.834Z,-2.40
2023-03-12T00:46:14.648Z,-3.20
2023-03-12T00:48:41.440Z,-3.20
2023-03-12T00:51:08.188Z,-3.10
2023-03-12T00:53:35.184Z,-3.00
2023-03-12T00:56:02.385Z,-2.10
2023-03-12T00:58:29.073Z,-3.40
2023-03-12T01:00:55.843Z,-3.40
2023-03-12T01:03:22.574Z,-3.70
2023-03-12T01:05:54.004Z,-3.70
2023-03-12T01:08:20.974Z,-2.70
2023-03-12T01:10:47.798Z,-2.70
2023-03-12T01:15:41.547Z,-3.30
2023-03-12T01:18:08.158Z,-3.50
2023-03-12T01:20:34.898Z,-3.40
2023-03-12T01:23:01.542Z,-2.80
2023-03-12T01:25:28.274Z,-3.70
2023-03-12T01:27:54.928Z,-2.70
2023-03-12T01:30:21.666Z,-3.00
2023-03-12T01:32:48.324Z,-3.60
2023-03-12T01:35:15.067Z,-3.30
2023-03-12T01:37:41.716Z,-3.60
2023-03-12T01:40:08.635Z,-3.50
2023-03-12T01:42:35.314Z,-3.30
2023-03-12T01:45:02.901Z,-3.10
2023-03-12T01:47:32.483Z,-3.30
2023-03-12T01:50:00.193Z,-3.70
2023-03-12T01:52:27.058Z,-3.50
2023-03-12T01:54:56.760Z,-3.50
2023-03-12T01:57:26.900Z,-3.10
2023-03-12T01:59:56.624Z,-3.30
2023-03-12T02:02:28.809Z,-4.10
2023-03-12T02:05:14.283Z,-3.10
2023-03-12T02:07:41.263Z,-3.00
2023-03-12T02:10:08.188Z,-3.00
2023-03-12T02:12:34.765Z,-2.90
2023-03-12T02:15:01.319Z,-3.00
2023-03-12T02:17:27.958Z,-2.90
2023-03-12T02:20:10.952Z,-2.90
2023-03-12T02:22:38.617Z,-2.90
2023-03-12T02:25:23.948Z,-2.90
2023-03-12T02:27:50.967Z,-2.80
2023-03-12T02:30:43.292Z,-2.80
2023-03-12T02:33:10.553Z,-2.90
2023-03-12T02:35:37.562Z,-2.90
2023-03-12T02:38:04.284Z,-2.80
2023-03-12T02:40:43.515Z,-2.70
2023-03-12T02:43:10.330Z,-2.70
2023-03-12T02:45:37.723Z,-2.80
2023-03-12T02:48:08.133Z,-2.70
2023-03-12T02:50:34.794Z,-2.70
2023-03-12T02:53:01.363Z,-2.80
2023-03-12T02:55:27.976Z,-2.70
2023-03-12T02:57:54.507Z,-2.80
2023-03-12T03:00:21.198Z,-2.90
2023-03-12T03:02:47.760Z,-2.90
2023-03-12T03:05:14.321Z,-3.00
2023-03-12T03:07:40.876Z,-3.00
2023-03-12T03:10:07.702Z,-3.00
2023-03-12T03:12:35.293Z,-2.90
2023-03-12T03:15:02.506Z,-2.90
2023-03-12T03:17:29.064Z,-2.90
2023-03-12T03:19:55.945Z,-3.00
2023-03-12T03:22:22.593Z,-3.00
2023-03-12T03:24:49.349Z,-2.90
2023-03-12T03:27:15.916Z,-2.70
2023-03-12T03:29:42.469Z,-2.60
2023-03-12T03:34:36.018Z,-2.60
2023-03-12T03:37:02.577Z,-2.50
2023-03-12T03:39:29.436Z,-2.50
2023-03-12T03:41:56.087Z,-2.50
2023-03-12T03:44:23.124Z,-2.40
2023-03-12T03:46:49.891Z,-2.40
2023-03-12T03:49:16.756Z,-2.40
2023-03-12T03:51:43.374Z,-2.40
2023-03-12T03:54:10.698Z,-2.30
2023-03-12T03:56:37.293Z,-2.40
2023-03-12T03:59:04.228Z,-2.40
2023-03-12T04:01:31.422Z,-2.40
2023-03-12T04:03:58.380Z,-2.40
2023-03-12T04:06:24.937Z,-2.30
2023-03-12T04:08:51.488Z,-2.30
2023-03-12T04:11:19.993Z,-2.30
2023-03-12T04:13:46.635Z,-2.30
2023-03-12T04:16:13.859Z,-2.30
2023-03-12T04:18:40.578Z,-2.20
2023-03-12T04:21:08.374Z,-2.20
2023-03-12T04:23:35.550Z,-2.20
2023-03-12T04:26:02.520Z,-2.20
2023-03-12T04:28:29.070Z,-2.20
2023-03-12T04:30:56.293Z,-2.20
2023-03-12T04:33:22.861Z,-2.30
2023-03-12T04:35:52.981Z,-2.20
2023-03-12T04:38:24.108Z,-2.30
2023-03-12T04:41:07.972Z,-2.30
2023-03-12T04:43:34.569Z,-2.20
2023-03-12T04:46:01.601Z,-2.20
2023-03-12T04:48:28.136Z,-2.20
2023-03-12T04:50:55.054Z,-2.30
2023-03-12T04:53:21.668Z,-2.30
2023-03-12T04:55:48.564Z,-2.30
2023-03-12T04:58:15.274Z,-2.30
2023-03-12T05:00:41.855Z,-2.30
2023-03-12T05:03:08.889Z,-2.30
2023-03-12T05:05:35.818Z,-2.30
2023-03-12T05:08:02.928Z,-2.30
2023-03-12T05:10:29.587Z,-2.30
2023-03-12T05:12:56.124Z,-2.30
2023-03-12T05:15:22.809Z,-2.30
2023-03-12T05:17:49.409Z,-2.30
2023-03-12T05:20:17.640Z,-2.20
2023-03-12T05:22:44.326Z,-2.20
2023-03-12T05:25:11.351Z,-2.20
2023-03-12T05:27:38.166Z,-2.10
2023-03-12T05:30:04.948Z,-2.10
2023-03-12T05:32:31.624Z,-2.10
2023-03-12T05:34:58.178Z,-2.00
2023-03-12T05:37:24.768Z,-2.00
2023-03-12T05:39:53.388Z,-2.00
2023-03-12T05:42:19.940Z,-1.90
2023-03-12T05:44:46.567Z,-1.90
2023-03-12T05:47:13.110Z,-1.90
2023-03-12T05:49:39.668Z,-1.90
2023-03-12T05:52:06.471Z,-1.90
2023-03-12T05:54:33.107Z,-1.90
2023-03-12T05:56:59.665Z,-1.90
2023-03-12T05:59:26.647Z,-1.90
2023-03-12T06:01:53.206Z,-1.90
2023-03-12T06:04:19.882Z,-1.80
2023-03-12T06:06:46.598Z,-1.70
2023-03-12T06:09:13.211Z,-1.70
2023-03-12T06:14:06.827Z,-1.60
2023-03-12T06:16:33.569Z,-1.50
2023-03-12T06:19:01.694Z,-1.50
2023-03-12T06:21:29.724Z,-1.50
2023-03-12T06:23:56.701Z,-1.40
2023-03-12T06:26:23.583Z,-1.30
2023-03-12T06:31:17.443Z,-1.20
2023-03-12T06:33:44.019Z,-1.10
2023-03-12T06:36:10.728Z,-1.10
2023-03-12T06:38:37.307Z,-1.00
2023-03-12T06:41:05.032Z,-0.90
2023-03-12T06:43:32.493Z,-0.80
2023-03-12T06:45:59.743Z,-0.80
2023-03-12T06:48:27.183Z,-0.70
2023-03-12T06:50:53.895Z,-0.60
2023-03-12T06:53:20.888Z,-0.50
2023-03-12T06:55:49.166Z,-0.50
2023-03-12T06:58:15.725Z,-0.40
2023-03-12T07:00:42.328Z,-0.40
2023-03-12T07:03:09.050Z,-0.30
2023-03-12T07:05:35.693Z,-0.30
2023-03-12T07:08:02.275Z,-0.30
2023-03-12T07:10:29.515Z,-0.30
2023-03-12T07:12:56.721Z,0.00
2023-03-12T07:15:23.708Z,0.10
2023-03-12T07:17:50.367Z,-0.20
2023-03-12T07:20:17.152Z,-0.50
2023-03-12T07:22:43.732Z,0.00
2023-03-12T07:25:10.918Z,0.00
2023-03-12T07:27:37.560Z,0.80
2023-03-12T07:30:04.832Z,0.40
2023-03-12T07:32:33.446Z,0.30
2023-03-12T07:35:00.240Z,0.30
2023-03-12T07:37:26.848Z,0.40
2023-03-12T07:39:54.735Z,0.40
2023-03-12T07:42:21.680Z,0.40
2023-03-12T07:44:48.584Z,0.50
2023-03-12T07:47:23.595Z,0.40
2023-03-12T07:49:51.501Z,0.40
2023-03-12T07:52:20.034Z,0.40
2023-03-12T07:54:46.989Z,0.40
2023-03-12T07:57:13.766Z,0.40
2023-03-12T07:59:40.439Z,0.40
2023-03-12T08:02:07.231Z,0.60
2023-03-12T08:04:34.068Z,1.10
2023-03-12T08:07:02.030Z,0.30
2023-03-12T08:09:29.507Z,0.80
2023-03-12T08:11:59.749Z,1.10
2023-03-12T08:14:26.647Z,1.40
2023-03-12T08:16:53.233Z,0.80
2023-03-12T08:19:21.970Z,1.60
2023-03-12T08:21:48.785Z,2.00
2023-03-12T08:24:15.640Z,1.30
2023-03-12T08:26:42.271Z,1.60
2023-03-12T08:29:08.949Z,1.00
2023-03-12T08:31:35.633Z,1.60
2023-03-12T08:34:06.978Z,2.00
2023-03-12T08:36:33.567Z,1.40
2023-03-12T08:39:00.120Z,1.80
2023-03-12T08:41:30.230Z,1.50
2023-03-12T08:43:57.035Z,2.90
2023-03-12T08:46:23.685Z,2.10
2023-03-12T08:49:00.684Z,2.00
2023-03-12T08:51:27.320Z,2.90
2023-03-12T08:54:04.331Z,2.40
2023-03-12T08:56:36.369Z,2.40
2023-03-12T08:59:20.523Z,3.20
2023-03-12T09:01:47.563Z,2.40
2023-03-12T09:04:14.179Z,2.30
2023-03-12T09:06:43.359Z,2.90
2023-03-12T09:12:54.187Z,2.50
2023-03-12T09:16:22.440Z,3.30
2023-03-12T09:19:23.394Z,3.40
2023-03-12T09:21:52.895Z,3.40
2023-03-12T09:24:34.637Z,3.90
2023-03-12T09:27:24.722Z,3.80
2023-03-12T09:30:00.242Z,4.20
2023-03-12T09:32:52.047Z,3.70
2023-03-12T09:35:46.708Z,3.70
2023-03-12T09:38:22.392Z,3.90
2023-03-12T09:44:13.472Z,3.60
2023-03-12T09:46:47.255Z,3.70
2023-03-12T09:49:29.265Z,3.90
2023-03-12T09:55:27.976Z,4.20
2023-03-12T09:57:55.541Z,4.40
2023-03-12T10:00:23.553Z,4.90
2023-03-12T10:02:50.100Z,4.80
2023-03-12T10:05:35.545Z,5.50
2023-03-12T10:08:26.677Z,4.70
2023-03-12T10:14:23.475Z,4.90
2023-03-12T11:05:42.810Z,5.10
2023-03-12T11:08:41.108Z,5.10
2023-03-12T11:11:07.911Z,5.20
2023-03-12T11:13:35.818Z,5.20
2023-03-12T11:16:24.948Z,5.90
2023-03-12T11:18:55.095Z,5.20
2023-03-12T11:21:21.793Z,5.10
2023-03-12T11:24:04.690Z,5.00
2023-03-12T11:26:33.776Z,5.10
2023-03-12T11:29:39.807Z,4.90
2023-03-12T11:32:15.526Z,5.00
2023-03-12T11:34:43.306Z,5.00
2023-03-12T11:37:15.393Z,5.00
2023-03-12T11:39:57.450Z,5.00
2023-03-12T11:42:24.172Z,5.00
2023-03-12T11:44:57.036Z,5.10
2023-03-12T11:47:25.365Z,4.80
2023-03-12T11:50:18.549Z,4.40
2023-03-12T11:52:57.073Z,4.80
2023-03-12T11:55:32.835Z,4.60
2023-03-12T11:58:14.666Z,4.70
2023-03-12T12:01:02.135Z,4.70
2023-03-12T12:03:50.779Z,4.70
2023-03-12T12:06:22.855Z,4.40
2023-03-12T12:09:12.994Z,4.70
2023-03-12T12:11:45.752Z,4.80
2023-03-12T12:14:35.406Z,4.90
2023-03-12T12:17:16.160Z,4.80
2023-03-12T12:19:48.841Z,4.90
2023-03-12T12:22:35.574Z,4.90
2023-03-12T12:25:02.226Z,4.90
2023-03-12T12:27:30.010Z,5.00
2023-03-12T12:30:14.221Z,4.90
2023-03-12T12:32:46.884Z,5.30
2023-03-12T12:35:20.004Z,4.80
2023-03-12T12:37:50.628Z,4.80
2023-03-12T12:40:29.434Z,4.70
2023-03-12T12:43:14.832Z,4.80
2023-03-12T12:45:42.187Z,4.80
2023-03-12T12:48:31.122Z,4.60
2023-03-12T12:51:00.174Z,4.70
2023-03-12T12:53:31.794Z,4.60
2023-03-12T12:56:18.088Z,4.70
2023-03-12T12:59:00.181Z,4.70
2023-03-12T13:01:27.964Z,4.70
2023-03-12T13:03:58.200Z,4.80
2023-03-12T13:06:28.699Z,5.00
2023-03-12T13:08:59.532Z,5.00
2023-03-12T13:11:44.963Z,5.10
2023-03-12T13:14:13.811Z,5.10
2023-03-12T13:16:43.660Z,5.10
2023-03-12T13:19:13.375Z,5.20
2023-03-12T13:21:40.145Z,5.10
2023-03-12T13:24:06.721Z,5.20
2023-03-12T13:26:53.614Z,5.40
2023-03-12T13:29:38.572Z,5.20
2023-03-12T13:32:05.899Z,5.20
2023-03-12T13:34:41.897Z,5.30
2023-03-12T13:37:18.646Z,5.30
2023-03-12T13:39:45.406Z,5.20
2023-03-12T13:42:24.209Z,5.20
2023-03-12T13:44:51.536Z,5.20
2023-03-12T13:47:35.548Z,5.20
2023-03-12T13:50:08.181Z,5.20
2023-03-12T13:52:45.447Z,5.20
2023-03-12T13:55:15.118Z,5.20
2023-03-12T13:57:46.892Z,5.20
2023-03-12T14:00:27.258Z,5.60
2023-03-12T14:03:12.767Z,5.30
2023-03-12T14:05:53.401Z,5.40
2023-03-12T14:08:32.887Z,5.40
2023-03-12T14:11:02.682Z,5.50
2023-03-12T14:13:29.333Z,5.50
2023-03-12T14:16:08.638Z,6.00
2023-03-12T14:18:36.599Z,5.60
2023-03-12T14:21:07.083Z,5.60
2023-03-12T14:23:37.227Z,5.70
2023-03-12T14:26:31.282Z,6.20
2023-03-12T14:29:20.952Z,6.20
2023-03-12T14:35:20.248Z,6.70
2023-03-12T14:43:45.311Z,6.50
2023-03-12T14:46:21.302Z,6.80
2023-03-12T14:48:59.671Z,6.50
2023-03-12T14:51:49.624Z,6.10
2023-03-12T14:54:48.011Z,6.40
2023-03-12T15:00:02.177Z,7.30
2023-03-12T15:05:22.190Z,7.60
2023-03-12T15:07:53.666Z,6.60
2023-03-12T15:15:36.160Z,6.60
2023-03-12T15:18:05.026Z,6.70
2023-03-12T15:20:31.901Z,6.90
2023-03-12T15:22:59.059Z,7.20
2023-03-12T15:25:30.229Z,7.10
2023-03-12T15:28:00.608Z,7.30
2023-03-12T15:30:27.955Z,7.30
2023-03-12T15:33:25.162Z,7.10
2023-03-12T15:36:00.476Z,7.10
2023-03-12T15:38:32.830Z,7.10
2023-03-12T15:41:02.860Z,7.10
2023-03-12T15:43:30.698Z,7.10
2023-03-12T15:45:59.799Z,6.90
2023-03-12T15:48:29.169Z,7.10
2023-03-12T15:50:55.889Z,7.20
2023-03-12T15:53:23.136Z,7.10
2023-03-12T15:56:02.984Z,7.10
2023-03-12T15:58:43.222Z,7.10
2023-03-12T16:01:11.505Z,7.10
2023-03-12T16:03:39.022Z,7.10
2023-03-12T16:06:10.572Z,7.00
2023-03-12T16:08:44.197Z,7.10
2023-03-12T16:11:22.032Z,7.00
2023-03-12T16:13:50.344Z,7.00
2023-03-12T16:16:17.161Z,6.90
2023-03-12T16:18:44.039Z,7.00
2023-03-12T16:21:10.884Z,6.90
2023-03-12T16:23:37.873Z,7.00
2023-03-12T16:26:05.149Z,6.90
2023-03-12T16:28:33.329Z,6.90
